sensor_id;sensor_type;location;lat;lon;timestamp;temperature;humidity
34460;DHT22;20704;51.260;22.558;2023-03-04T00:00:13;1.60;99.90
34460;DHT22;20704;51.260;22.558;2023-03-04T00:02:38;1.60;99.90
34460;DHT22;20704;51.260;22.558;2023-03-04T00:04:41;1.60;99.90
34460;DHT22;20704;51.260;22.558;2023-03-04T00:06:43;1.60;99.90
34460;DHT22;20704;51.260;22.558;2023-03-04T00:08:45;1.60;99.90
34460;DHT22;20704;51.260;22.558;2023-03-04T00:10:47;1.60;99.90
34460;DHT22;20704;51.260;22.558;2023-03-04T00:12:50;1.60;99.90
34460;DHT22;20704;51.260;22.558;2023-03-04T00:14:52;1.60;99.90
34460;DHT22;20704;51.260;22.558;2023-03-04T00:16:54;1.60;99.90
34460;DHT22;20704;51.260;22.558;2023-03-04T00:18:57;1.50;99.90
34460;DHT22;20704;51.260;22.558;2023-03-04T00:20:59;1.60;99.90
34460;DHT22;20704;51.260;22.558;2023-03-04T00:23:02;1.60;99.90
34460;DHT22;20704;51.260;22.558;2023-03-04T00:25:04;1.60;99.90
34460;DHT22;20704;51.260;22.558;2023-03-04T00:27:07;1.50;99.90
34460;DHT22;20704;51.260;22.558;2023-03-04T00:29:09;1.50;99.90
34460;DHT22;20704;51.260;22.558;2023-03-04T00:31:11;1.50;99.90
34460;DHT22;20704;51.260;22.558;2023-03-04T00:33:14;1.40;99.90
34460;DHT22;20704;51.260;22.558;2023-03-04T00:35:16;1.30;99.90
34460;DHT22;20704;51.260;22.558;2023-03-04T00:37:18;1.30;99.90
34460;DHT22;20704;51.260;22.558;2023-03-04T00:39:21;1.40;99.90
34460;DHT22;20704;51.260;22.558;2023-03-04T00:41:23;1.30;99.90
34460;DHT22;20704;51.260;22.558;2023-03-04T00:43:26;1.30;99.90
34460;DHT22;20704;51.260;22.558;2023-03-04T00:45:28;1.30;99.90
34460;DHT22;20704;51.260;22.558;2023-03-04T00:47:30;1.30;99.90
34460;DHT22;20704;51.260;22.558;2023-03-04T00:49:32;1.40;99.90
34460;DHT22;20704;51.260;22.558;2023-03-04T00:51:34;1.30;99.90
34460;DHT22;20704;51.260;22.558;2023-03-04T00:53:37;1.30;99.90
34460;DHT22;20704;51.260;22.558;2023-03-04T00:55:39;1.30;99.90
34460;DHT22;20704;51.260;22.558;2023-03-04T00:57:41;1.40;99.90
34460;DHT22;20704;51.260;22.558;2023-03-04T00:59:43;1.30;99.90
34460;DHT22;20704;51.260;22.558;2023-03-04T01:01:47;1.30;99.90
34460;DHT22;20704;51.260;22.558;2023-03-04T01:03:49;1.30;99.90
34460;DHT22;20704;51.260;22.558;2023-03-04T01:05:51;1.20;99.90
34460;DHT22;20704;51.260;22.558;2023-03-04T01:07:54;1.30;99.90
34460;DHT22;20704;51.260;22.558;2023-03-04T01:09:56;1.20;99.90
34460;DHT22;20704;51.260;22.558;2023-03-04T01:11:58;1.20;99.90
34460;DHT22;20704;51.260;22.558;2023-03-04T01:14:00;1.20;99.90
34460;DHT22;20704;51.260;22.558;2023-03-04T01:16:03;1.20;99.90
34460;DHT22;20704;51.260;22.558;2023-03-04T01:18:06;1.20;99.90
34460;DHT22;20704;51.260;22.558;2023-03-04T01:20:09;1.30;99.90
34460;DHT22;20704;51.260;22.558;2023-03-04T01:22:12;1.20;99.90
34460;DHT22;20704;51.260;22.558;2023-03-04T01:24:17;1.20;99.90
34460;DHT22;20704;51.260;22.558;2023-03-04T01:26:21;1.20;99.90
34460;DHT22;20704;51.260;22.558;2023-03-04T01:28:23;1.20;99.90
34460;DHT22;20704;51.260;22.558;2023-03-04T01:30:25;1.20;99.90
34460;DHT22;20704;51.260;22.558;2023-03-04T01:32:27;1.20;99.90
34460;DHT22;20704;51.260;22.558;2023-03-04T01:34:30;1.10;99.90
34460;DHT22;20704;51.260;22.558;2023-03-04T01:36:32;1.20;99.90
34460;DHT22;20704;51.260;22.558;2023-03-04T01:38:34;1.20;99.90
34460;DHT22;20704;51.260;22.558;2023-03-04T01:40:37;1.20;99.90
34460;DHT22;20704;51.260;22.558;2023-03-04T01:42:39;1.30;99.90
34460;DHT22;20704;51.260;22.558;2023-03-04T01:44:43;1.30;99.90
34460;DHT22;20704;51.260;22.558;2023-03-04T01:46:50;1.20;99.90
34460;DHT22;20704;51.260;22.558;2023-03-04T01:48:53;1.20;99.90
34460;DHT22;20704;51.260;22.558;2023-03-04T01:50:56;1.20;99.90
34460;DHT22;20704;51.260;22.558;2023-03-04T01:53:00;1.30;99.90
34460;DHT22;20704;51.260;22.558;2023-03-04T01:55:10;1.30;99.90
34460;DHT22;20704;51.260;22.558;2023-03-04T01:57:18;1.30;99.90
34460;DHT22;20704;51.260;22.558;2023-03-04T01:59:25;1.30;99.90
34460;DHT22;20704;51.260;22.558;2023-03-04T02:01:27;1.20;99.90
34460;DHT22;20704;51.260;22.558;2023-03-04T02:03:29;1.20;99.90
34460;DHT22;20704;51.260;22.558;2023-03-04T02:05:32;1.20;99.90
34460;DHT22;20704;51.260;22.558;2023-03-04T02:07:35;1.20;99.90
34460;DHT22;20704;51.260;22.558;2023-03-04T02:09:37;1.20;99.90
34460;DHT22;20704;51.260;22.558;2023-03-04T02:11:40;1.20;99.90
34460;DHT22;20704;51.260;22.558;2023-03-04T02:13:42;1.20;99.90
34460;DHT22;20704;51.260;22.558;2023-03-04T02:15:45;1.20;99.90
34460;DHT22;20704;51.260;22.558;2023-03-04T02:17:47;1.20;99.90
34460;DHT22;20704;51.260;22.558;2023-03-04T02:22:17;1.20;99.90
34460;DHT22;20704;51.260;22.558;2023-03-04T02:26:32;1.20;99.90
34460;DHT22;20704;51.260;22.558;2023-03-04T02:28:36;1.20;99.90
34460;DHT22;20704;51.260;22.558;2023-03-04T02:30:38;1.20;99.90
34460;DHT22;20704;51.260;22.558;2023-03-04T02:32:41;1.20;99.90
34460;DHT22;20704;51.260;22.558;2023-03-04T02:34:48;1.20;99.90
34460;DHT22;20704;51.260;22.558;2023-03-04T02:36:52;1.10;99.90
34460;DHT22;20704;51.260;22.558;2023-03-04T02:39:00;1.20;99.90
34460;DHT22;20704;51.260;22.558;2023-03-04T02:41:04;1.20;99.90
34460;DHT22;20704;51.260;22.558;2023-03-04T02:43:10;1.20;99.90
34460;DHT22;20704;51.260;22.558;2023-03-04T02:45:33;1.20;99.90
34460;DHT22;20704;51.260;22.558;2023-03-04T02:47:36;1.30;99.90
34460;DHT22;20704;51.260;22.558;2023-03-04T02:49:40;1.30;99.90
34460;DHT22;20704;51.260;22.558;2023-03-04T02:51:42;1.20;99.90
34460;DHT22;20704;51.260;22.558;2023-03-04T02:53:45;1.20;99.90
34460;DHT22;20704;51.260;22.558;2023-03-04T02:55:48;1.20;99.90
34460;DHT22;20704;51.260;22.558;2023-03-04T02:57:50;1.20;99.90
34460;DHT22;20704;51.260;22.558;2023-03-04T02:59:52;1.20;99.90
34460;DHT22;20704;51.260;22.558;2023-03-04T03:01:55;1.20;99.90
34460;DHT22;20704;51.260;22.558;2023-03-04T03:03:57;1.20;99.90
34460;DHT22;20704;51.260;22.558;2023-03-04T03:06:00;1.20;99.90
34460;DHT22;20704;51.260;22.558;2023-03-04T03:08:03;1.20;99.90
34460;DHT22;20704;51.260;22.558;2023-03-04T03:10:05;1.20;99.90
34460;DHT22;20704;51.260;22.558;2023-03-04T03:12:07;1.30;99.90
34460;DHT22;20704;51.260;22.558;2023-03-04T03:14:10;1.20;99.90
34460;DHT22;20704;51.260;22.558;2023-03-04T03:16:12;1.20;99.90
34460;DHT22;20704;51.260;22.558;2023-03-04T03:18:14;1.20;99.90
34460;DHT22;20704;51.260;22.558;2023-03-04T03:20:19;1.20;99.90
34460;DHT22;20704;51.260;22.558;2023-03-04T03:22:22;1.30;99.90
34460;DHT22;20704;51.260;22.558;2023-03-04T03:24:24;1.20;99.90
34460;DHT22;20704;51.260;22.558;2023-03-04T03:26:26;1.20;99.90
34460;DHT22;20704;51.260;22.558;2023-03-04T03:28:28;1.10;99.90
34460;DHT22;20704;51.260;22.558;2023-03-04T03:30:31;1.10;99.90
34460;DHT22;20704;51.260;22.558;2023-03-04T03:32:33;1.10;99.90
34460;DHT22;20704;51.260;22.558;2023-03-04T03:34:36;1.00;99.90
34460;DHT22;20704;51.260;22.558;2023-03-04T03:36:38;0.90;99.90
34460;DHT22;20704;51.260;22.558;2023-03-04T03:38:41;1.00;99.90
34460;DHT22;20704;51.260;22.558;2023-03-04T03:40:43;1.00;99.90
34460;DHT22;20704;51.260;22.558;2023-03-04T03:42:45;1.00;99.90
34460;DHT22;20704;51.260;22.558;2023-03-04T03:44:50;1.00;99.90
34460;DHT22;20704;51.260;22.558;2023-03-04T03:46:52;1.00;99.90
34460;DHT22;20704;51.260;22.558;2023-03-04T03:48:54;1.00;99.90
34460;DHT22;20704;51.260;22.558;2023-03-04T03:50:57;1.10;99.90
34460;DHT22;20704;51.260;22.558;2023-03-04T03:52:59;1.10;99.90
34460;DHT22;20704;51.260;22.558;2023-03-04T03:55:01;1.10;99.90
34460;DHT22;20704;51.260;22.558;2023-03-04T03:57:04;1.10;99.90
34460;DHT22;20704;51.260;22.558;2023-03-04T03:59:06;1.10;99.90
34460;DHT22;20704;51.260;22.558;2023-03-04T04:01:08;1.10;99.90
34460;DHT22;20704;51.260;22.558;2023-03-04T04:03:13;1.20;99.90
34460;DHT22;20704;51.260;22.558;2023-03-04T04:05:16;1.10;99.90
34460;DHT22;20704;51.260;22.558;2023-03-04T04:07:19;1.10;99.90
34460;DHT22;20704;51.260;22.558;2023-03-04T04:09:21;1.20;99.90
34460;DHT22;20704;51.260;22.558;2023-03-04T04:11:23;1.20;99.90
34460;DHT22;20704;51.260;22.558;2023-03-04T04:13:25;1.20;99.90
34460;DHT22;20704;51.260;22.558;2023-03-04T04:15:28;1.20;99.90
34460;DHT22;20704;51.260;22.558;2023-03-04T04:17:30;1.10;99.90
34460;DHT22;20704;51.260;22.558;2023-03-04T04:19:32;1.20;99.90
34460;DHT22;20704;51.260;22.558;2023-03-04T04:21:34;1.20;99.90
34460;DHT22;20704;51.260;22.558;2023-03-04T04:23:37;1.20;99.90
34460;DHT22;20704;51.260;22.558;2023-03-04T04:25:39;1.30;99.90
34460;DHT22;20704;51.260;22.558;2023-03-04T04:27:41;1.30;99.90
34460;DHT22;20704;51.260;22.558;2023-03-04T04:29:43;1.30;99.90
34460;DHT22;20704;51.260;22.558;2023-03-04T04:31:46;1.30;99.90
34460;DHT22;20704;51.260;22.558;2023-03-04T04:33:48;1.40;99.90
34460;DHT22;20704;51.260;22.558;2023-03-04T04:35:50;1.30;99.90
34460;DHT22;20704;51.260;22.558;2023-03-04T04:37:53;1.30;99.90
34460;DHT22;20704;51.260;22.558;2023-03-04T04:39:55;1.30;99.90
34460;DHT22;20704;51.260;22.558;2023-03-04T04:41:59;1.40;99.90
34460;DHT22;20704;51.260;22.558;2023-03-04T04:44:01;1.40;99.90
34460;DHT22;20704;51.260;22.558;2023-03-04T04:46:03;1.40;99.90
34460;DHT22;20704;51.260;22.558;2023-03-04T04:48:06;1.40;99.90
34460;DHT22;20704;51.260;22.558;2023-03-04T04:50:09;1.40;99.90
34460;DHT22;20704;51.260;22.558;2023-03-04T04:52:11;1.40;99.90
34460;DHT22;20704;51.260;22.558;2023-03-04T04:54:14;1.40;99.90
34460;DHT22;20704;51.260;22.558;2023-03-04T04:56:19;1.40;99.90
34460;DHT22;20704;51.260;22.558;2023-03-04T04:58:21;1.40;99.90
34460;DHT22;20704;51.260;22.558;2023-03-04T05:00:24;1.40;99.90
34460;DHT22;20704;51.260;22.558;2023-03-04T05:02:26;1.40;99.90
34460;DHT22;20704;51.260;22.558;2023-03-04T05:04:28;1.40;99.90
34460;DHT22;20704;51.260;22.558;2023-03-04T05:06:30;1.40;99.90
34460;DHT22;20704;51.260;22.558;2023-03-04T05:08:34;1.50;99.90
34460;DHT22;20704;51.260;22.558;2023-03-04T05:10:36;1.40;99.90
34460;DHT22;20704;51.260;22.558;2023-03-04T05:12:39;1.40;99.90
34460;DHT22;20704;51.260;22.558;2023-03-04T05:14:41;1.50;99.90
34460;DHT22;20704;51.260;22.558;2023-03-04T05:16:43;1.50;99.90
34460;DHT22;20704;51.260;22.558;2023-03-04T05:18:45;1.50;99.90
34460;DHT22;20704;51.260;22.558;2023-03-04T05:20:52;1.50;99.90
34460;DHT22;20704;51.260;22.558;2023-03-04T05:22:55;1.50;99.90
34460;DHT22;20704;51.260;22.558;2023-03-04T05:24:57;1.50;99.90
34460;DHT22;20704;51.260;22.558;2023-03-04T05:27:00;1.50;99.90
34460;DHT22;20704;51.260;22.558;2023-03-04T05:29:03;1.50;99.90
34460;DHT22;20704;51.260;22.558;2023-03-04T05:31:05;1.50;99.90
34460;DHT22;20704;51.260;22.558;2023-03-04T05:33:09;1.50;99.90
34460;DHT22;20704;51.260;22.558;2023-03-04T05:35:11;1.50;99.90
34460;DHT22;20704;51.260;22.558;2023-03-04T05:37:14;1.50;99.90
34460;DHT22;20704;51.260;22.558;2023-03-04T05:39:16;1.50;99.90
34460;DHT22;20704;51.260;22.558;2023-03-04T05:41:18;1.50;99.90
34460;DHT22;20704;51.260;22.558;2023-03-04T05:43:24;1.50;99.90
34460;DHT22;20704;51.260;22.558;2023-03-04T05:45:26;1.50;99.90
34460;DHT22;20704;51.260;22.558;2023-03-04T05:47:28;1.50;99.90
34460;DHT22;20704;51.260;22.558;2023-03-04T05:49:31;1.50;99.90
34460;DHT22;20704;51.260;22.558;2023-03-04T05:51:33;1.50;99.90
34460;DHT22;20704;51.260;22.558;2023-03-04T05:53:35;1.60;99.90
34460;DHT22;20704;51.260;22.558;2023-03-04T05:55:38;1.60;99.90
34460;DHT22;20704;51.260;22.558;2023-03-04T05:57:40;1.60;99.90
34460;DHT22;20704;51.260;22.558;2023-03-04T05:59:42;1.70;99.90
34460;DHT22;20704;51.260;22.558;2023-03-04T06:01:46;1.60;99.90
34460;DHT22;20704;51.260;22.558;2023-03-04T06:03:48;1.60;99.90
34460;DHT22;20704;51.260;22.558;2023-03-04T06:05:50;1.60;99.90
34460;DHT22;20704;51.260;22.558;2023-03-04T06:07:53;1.60;99.90
34460;DHT22;20704;51.260;22.558;2023-03-04T06:09:55;1.60;99.90
34460;DHT22;20704;51.260;22.558;2023-03-04T06:11:57;1.60;99.90
34460;DHT22;20704;51.260;22.558;2023-03-04T06:13:59;1.60;99.90
34460;DHT22;20704;51.260;22.558;2023-03-04T06:16:02;1.60;99.90
34460;DHT22;20704;51.260;22.558;2023-03-04T06:18:06;1.60;99.90
34460;DHT22;20704;51.260;22.558;2023-03-04T06:20:09;1.60;99.90
34460;DHT22;20704;51.260;22.558;2023-03-04T06:22:12;1.60;99.90
34460;DHT22;20704;51.260;22.558;2023-03-04T06:24:14;1.60;99.90
34460;DHT22;20704;51.260;22.558;2023-03-04T06:26:17;1.70;99.90
34460;DHT22;20704;51.260;22.558;2023-03-04T06:28:19;1.70;99.90
34460;DHT22;20704;51.260;22.558;2023-03-04T06:30:22;1.70;99.90
34460;DHT22;20704;51.260;22.558;2023-03-04T06:32:24;1.70;99.90
34460;DHT22;20704;51.260;22.558;2023-03-04T06:34:27;1.70;99.90
34460;DHT22;20704;51.260;22.558;2023-03-04T06:36:30;1.70;99.90
34460;DHT22;20704;51.260;22.558;2023-03-04T06:38:33;1.80;99.90
34460;DHT22;20704;51.260;22.558;2023-03-04T06:40:35;1.80;99.90
34460;DHT22;20704;51.260;22.558;2023-03-04T06:42:38;1.80;99.90
34460;DHT22;20704;51.260;22.558;2023-03-04T06:44:41;1.80;99.90
34460;DHT22;20704;51.260;22.558;2023-03-04T06:46:43;1.90;99.90
34460;DHT22;20704;51.260;22.558;2023-03-04T06:48:45;1.90;99.90
34460;DHT22;20704;51.260;22.558;2023-03-04T06:50:48;2.00;99.90
34460;DHT22;20704;51.260;22.558;2023-03-04T06:52:50;2.00;99.90
34460;DHT22;20704;51.260;22.558;2023-03-04T06:54:52;1.90;99.90
34460;DHT22;20704;51.260;22.558;2023-03-04T06:56:54;2.00;99.90
34460;DHT22;20704;51.260;22.558;2023-03-04T06:58:57;2.00;99.90
34460;DHT22;20704;51.260;22.558;2023-03-04T07:01:28;2.00;99.90
34460;DHT22;20704;51.260;22.558;2023-03-04T07:03:31;2.00;99.90
34460;DHT22;20704;51.260;22.558;2023-03-04T07:05:33;2.00;99.90
34460;DHT22;20704;51.260;22.558;2023-03-04T07:07:35;2.00;99.90
34460;DHT22;20704;51.260;22.558;2023-03-04T07:09:37;2.00;99.90
34460;DHT22;20704;51.260;22.558;2023-03-04T07:11:40;2.00;99.90
34460;DHT22;20704;51.260;22.558;2023-03-04T07:13:43;2.10;99.90
34460;DHT22;20704;51.260;22.558;2023-03-04T07:15:46;2.10;99.90
34460;DHT22;20704;51.260;22.558;2023-03-04T07:17:48;2.10;99.90
34460;DHT22;20704;51.260;22.558;2023-03-04T07:19:50;2.10;99.90
34460;DHT22;20704;51.260;22.558;2023-03-04T07:21:52;2.10;99.90
34460;DHT22;20704;51.260;22.558;2023-03-04T07:23:55;2.10;99.90
34460;DHT22;20704;51.260;22.558;2023-03-04T07:25:57;2.10;99.90
34460;DHT22;20704;51.260;22.558;2023-03-04T07:28:00;2.20;99.90
34460;DHT22;20704;51.260;22.558;2023-03-04T07:30:04;2.20;99.90
34460;DHT22;20704;51.260;22.558;2023-03-04T07:32:09;2.20;99.90
34460;DHT22;20704;51.260;22.558;2023-03-04T07:34:13;2.20;99.90
34460;DHT22;20704;51.260;22.558;2023-03-04T07:36:17;2.20;99.90
34460;DHT22;20704;51.260;22.558;2023-03-04T07:38:20;2.30;99.90
34460;DHT22;20704;51.260;22.558;2023-03-04T07:40:23;2.20;99.90
34460;DHT22;20704;51.260;22.558;2023-03-04T07:42:25;2.20;99.90
34460;DHT22;20704;51.260;22.558;2023-03-04T07:44:28;2.20;99.90
34460;DHT22;20704;51.260;22.558;2023-03-04T07:46:30;2.20;99.90
34460;DHT22;20704;51.260;22.558;2023-03-04T07:48:32;2.20;99.90
34460;DHT22;20704;51.260;22.558;2023-03-04T07:50:34;2.20;99.90
34460;DHT22;20704;51.260;22.558;2023-03-04T07:52:41;2.20;99.90
34460;DHT22;20704;51.260;22.558;2023-03-04T07:54:44;2.30;99.90
34460;DHT22;20704;51.260;22.558;2023-03-04T07:56:47;2.30;99.90
34460;DHT22;20704;51.260;22.558;2023-03-04T07:58:49;2.30;99.90
34460;DHT22;20704;51.260;22.558;2023-03-04T08:00:54;2.30;99.90
34460;DHT22;20704;51.260;22.558;2023-03-04T08:02:56;2.30;99.90
34460;DHT22;20704;51.260;22.558;2023-03-04T08:04:59;2.30;99.90
34460;DHT22;20704;51.260;22.558;2023-03-04T08:07:01;2.20;99.90
34460;DHT22;20704;51.260;22.558;2023-03-04T08:09:06;2.20;99.90
34460;DHT22;20704;51.260;22.558;2023-03-04T08:11:14;2.30;99.90
34460;DHT22;20704;51.260;22.558;2023-03-04T08:13:19;2.30;99.90
34460;DHT22;20704;51.260;22.558;2023-03-04T08:15:21;2.30;99.90
34460;DHT22;20704;51.260;22.558;2023-03-04T08:17:24;2.30;99.90
34460;DHT22;20704;51.260;22.558;2023-03-04T08:19:26;2.30;99.90
34460;DHT22;20704;51.260;22.558;2023-03-04T08:21:29;2.40;99.90
34460;DHT22;20704;51.260;22.558;2023-03-04T08:23:31;2.30;99.90
34460;DHT22;20704;51.260;22.558;2023-03-04T08:25:33;2.30;99.90
34460;DHT22;20704;51.260;22.558;2023-03-04T08:27:36;2.30;99.90
34460;DHT22;20704;51.260;22.558;2023-03-04T08:29:38;2.40;99.90
34460;DHT22;20704;51.260;22.558;2023-03-04T08:31:40;2.40;99.90
34460;DHT22;20704;51.260;22.558;2023-03-04T08:33:43;2.50;99.90
34460;DHT22;20704;51.260;22.558;2023-03-04T08:35:46;2.50;99.90
34460;DHT22;20704;51.260;22.558;2023-03-04T08:37:48;2.50;99.90
34460;DHT22;20704;51.260;22.558;2023-03-04T08:39:50;2.50;99.90
34460;DHT22;20704;51.260;22.558;2023-03-04T08:41:55;2.50;99.90
34460;DHT22;20704;51.260;22.558;2023-03-04T08:43:58;2.50;99.90
34460;DHT22;20704;51.260;22.558;2023-03-04T08:46:01;2.60;99.90
34460;DHT22;20704;51.260;22.558;2023-03-04T08:48:04;2.50;99.90
34460;DHT22;20704;51.260;22.558;2023-03-04T08:50:07;2.60;99.90
34460;DHT22;20704;51.260;22.558;2023-03-04T08:52:09;2.50;99.90
34460;DHT22;20704;51.260;22.558;2023-03-04T08:54:11;2.60;99.90
34460;DHT22;20704;51.260;22.558;2023-03-04T08:56:14;2.60;99.90
34460;DHT22;20704;51.260;22.558;2023-03-04T08:58:18;2.60;99.90
34460;DHT22;20704;51.260;22.558;2023-03-04T09:00:21;2.60;99.90
34460;DHT22;20704;51.260;22.558;2023-03-04T09:02:24;2.60;99.90
34460;DHT22;20704;51.260;22.558;2023-03-04T09:04:27;2.60;99.90
34460;DHT22;20704;51.260;22.558;2023-03-04T09:06:29;1.80;99.90
34460;DHT22;20704;51.260;22.558;2023-03-04T09:08:32;2.70;99.90
34460;DHT22;20704;51.260;22.558;2023-03-04T09:10:34;2.70;99.90
34460;DHT22;20704;51.260;22.558;2023-03-04T09:12:36;2.70;99.90
34460;DHT22;20704;51.260;22.558;2023-03-04T09:14:39;2.70;99.90
34460;DHT22;20704;51.260;22.558;2023-03-04T09:16:41;2.60;99.90
34460;DHT22;20704;51.260;22.558;2023-03-04T09:18:43;2.60;99.90
34460;DHT22;20704;51.260;22.558;2023-03-04T09:20:46;2.70;99.90
34460;DHT22;20704;51.260;22.558;2023-03-04T09:22:48;2.70;99.90
34460;DHT22;20704;51.260;22.558;2023-03-04T09:24:51;2.70;99.90
34460;DHT22;20704;51.260;22.558;2023-03-04T09:26:53;2.80;99.90
34460;DHT22;20704;51.260;22.558;2023-03-04T09:28:58;2.80;99.90
34460;DHT22;20704;51.260;22.558;2023-03-04T09:31:00;2.70;99.90
34460;DHT22;20704;51.260;22.558;2023-03-04T09:33:03;2.80;99.90
34460;DHT22;20704;51.260;22.558;2023-03-04T09:35:06;2.80;99.90
34460;DHT22;20704;51.260;22.558;2023-03-04T09:37:08;2.80;99.90
34460;DHT22;20704;51.260;22.558;2023-03-04T09:39:11;2.80;99.90
34460;DHT22;20704;51.260;22.558;2023-03-04T09:41:28;2.90;99.90
34460;DHT22;20704;51.260;22.558;2023-03-04T09:43:37;2.90;99.90
34460;DHT22;20704;51.260;22.558;2023-03-04T09:45:47;2.80;99.90
34460;DHT22;20704;51.260;22.558;2023-03-04T09:47:52;2.90;99.90
34460;DHT22;20704;51.260;22.558;2023-03-04T09:50:08;2.80;99.90
34460;DHT22;20704;51.260;22.558;2023-03-04T09:55:13;2.90;99.90
34460;DHT22;20704;51.260;22.558;2023-03-04T10:00:10;2.80;99.90
34460;DHT22;20704;51.260;22.558;2023-03-04T10:02:30;2.80;99.90
34460;DHT22;20704;51.260;22.558;2023-03-04T10:04:48;2.90;99.90
34460;DHT22;20704;51.260;22.558;2023-03-04T10:06:53;2.90;99.90
34460;DHT22;20704;51.260;22.558;2023-03-04T10:13:24;2.90;99.90
34460;DHT22;20704;51.260;22.558;2023-03-04T10:15:39;2.90;99.90
34460;DHT22;20704;51.260;22.558;2023-03-04T10:17:46;2.90;99.90
34460;DHT22;20704;51.260;22.558;2023-03-04T10:24:26;2.80;99.90
34460;DHT22;20704;51.260;22.558;2023-03-04T10:26:30;2.80;99.90
34460;DHT22;20704;51.260;22.558;2023-03-04T10:28:34;2.80;99.90
34460;DHT22;20704;51.260;22.558;2023-03-04T10:31:04;2.80;99.90
34460;DHT22;20704;51.260;22.558;2023-03-04T10:33:22;2.80;99.90
34460;DHT22;20704;51.260;22.558;2023-03-04T10:35:32;2.80;99.90
34460;DHT22;20704;51.260;22.558;2023-03-04T10:38:02;2.80;99.90
34460;DHT22;20704;51.260;22.558;2023-03-04T10:40:22;2.90;99.90
34460;DHT22;20704;51.260;22.558;2023-03-04T10:42:28;2.80;99.90
34460;DHT22;20704;51.260;22.558;2023-03-04T10:44:34;2.80;99.90
34460;DHT22;20704;51.260;22.558;2023-03-04T10:46:41;2.80;99.90
34460;DHT22;20704;51.260;22.558;2023-03-04T10:48:44;2.80;99.90
34460;DHT22;20704;51.260;22.558;2023-03-04T10:50:47;2.70;99.90
34460;DHT22;20704;51.260;22.558;2023-03-04T10:52:49;2.70;99.90
34460;DHT22;20704;51.260;22.558;2023-03-04T10:55:05;2.60;99.90
34460;DHT22;20704;51.260;22.558;2023-03-04T10:57:20;2.70;99.90
34460;DHT22;20704;51.260;22.558;2023-03-04T10:59:46;2.70;99.90
34460;DHT22;20704;51.260;22.558;2023-03-04T11:01:53;2.70;99.90
34460;DHT22;20704;51.260;22.558;2023-03-04T11:03:56;2.70;99.90
34460;DHT22;20704;51.260;22.558;2023-03-04T11:08:18;2.80;99.90
34460;DHT22;20704;51.260;22.558;2023-03-04T11:10:40;2.80;99.90
34460;DHT22;20704;51.260;22.558;2023-03-04T11:13:00;2.80;99.90
34460;DHT22;20704;51.260;22.558;2023-03-04T11:15:16;2.80;99.90
34460;DHT22;20704;51.260;22.558;2023-03-04T11:17:22;2.90;99.90
34460;DHT22;20704;51.260;22.558;2023-03-04T11:19:37;2.90;99.90
34460;DHT22;20704;51.260;22.558;2023-03-04T11:21:40;3.00;99.90
34460;DHT22;20704;51.260;22.558;2023-03-04T11:24:04;3.00;99.90
34460;DHT22;20704;51.260;22.558;2023-03-04T11:26:32;3.10;99.90
34460;DHT22;20704;51.260;22.558;2023-03-04T11:31:14;3.10;99.90
34460;DHT22;20704;51.260;22.558;2023-03-04T11:38:31;3.20;99.90
34460;DHT22;20704;51.260;22.558;2023-03-04T11:40:38;3.20;99.90
34460;DHT22;20704;51.260;22.558;2023-03-04T11:43:33;3.20;99.90
34460;DHT22;20704;51.260;22.558;2023-03-04T11:46:05;3.20;99.90
34460;DHT22;20704;51.260;22.558;2023-03-04T11:48:24;3.20;99.90
34460;DHT22;20704;51.260;22.558;2023-03-04T11:50:45;3.30;99.90
34460;DHT22;20704;51.260;22.558;2023-03-04T11:55:33;3.30;99.90
34460;DHT22;20704;51.260;22.558;2023-03-04T12:03:01;3.20;99.90
34460;DHT22;20704;51.260;22.558;2023-03-04T12:05:40;3.30;99.90
34460;DHT22;20704;51.260;22.558;2023-03-04T12:15:31;3.10;99.90
34460;DHT22;20704;51.260;22.558;2023-03-04T12:26:47;3.10;99.90
34460;DHT22;20704;51.260;22.558;2023-03-04T12:31:35;3.10;99.90
34460;DHT22;20704;51.260;22.558;2023-03-04T12:38:35;3.10;99.90
34460;DHT22;20704;51.260;22.558;2023-03-04T12:40:51;3.20;99.90
34460;DHT22;20704;51.260;22.558;2023-03-04T12:45:38;3.20;99.90
34460;DHT22;20704;51.260;22.558;2023-03-04T12:55:11;3.20;99.90
34460;DHT22;20704;51.260;22.558;2023-03-04T12:57:24;3.30;99.90
34460;DHT22;20704;51.260;22.558;2023-03-04T12:59:33;3.30;99.90
34460;DHT22;20704;51.260;22.558;2023-03-04T13:01:40;3.30;99.90
34460;DHT22;20704;51.260;22.558;2023-03-04T13:08:50;3.30;99.90
34460;DHT22;20704;51.260;22.558;2023-03-04T13:13:41;3.30;99.90
34460;DHT22;20704;51.260;22.558;2023-03-04T13:15:44;3.30;99.90
34460;DHT22;20704;51.260;22.558;2023-03-04T13:20:10;3.30;99.90
34460;DHT22;20704;51.260;22.558;2023-03-04T13:24:44;3.40;99.90
34460;DHT22;20704;51.260;22.558;2023-03-04T13:26:47;3.30;99.90
34460;DHT22;20704;51.260;22.558;2023-03-04T13:31:17;3.40;99.90
34460;DHT22;20704;51.260;22.558;2023-03-04T13:37:59;3.40;99.90
34460;DHT22;20704;51.260;22.558;2023-03-04T13:40:34;3.40;99.90
34460;DHT22;20704;51.260;22.558;2023-03-04T13:42:40;3.40;99.90
34460;DHT22;20704;51.260;22.558;2023-03-04T13:46:45;3.40;99.90
34460;DHT22;20704;51.260;22.558;2023-03-04T13:50:52;3.40;99.90
34460;DHT22;20704;51.260;22.558;2023-03-04T13:52:59;3.40;99.90
34460;DHT22;20704;51.260;22.558;2023-03-04T13:55:34;3.40;99.90
34460;DHT22;20704;51.260;22.558;2023-03-04T13:57:37;3.40;99.90
34460;DHT22;20704;51.260;22.558;2023-03-04T13:59:54;3.40;99.90
34460;DHT22;20704;51.260;22.558;2023-03-04T14:04:28;3.40;99.90
34460;DHT22;20704;51.260;22.558;2023-03-04T14:06:31;3.40;99.90
34460;DHT22;20704;51.260;22.558;2023-03-04T14:08:33;3.30;99.90
34460;DHT22;20704;51.260;22.558;2023-03-04T14:13:04;3.40;99.90
34460;DHT22;20704;51.260;22.558;2023-03-04T14:17:22;3.40;99.90
34460;DHT22;20704;51.260;22.558;2023-03-04T14:19:28;3.50;99.90
34460;DHT22;20704;51.260;22.558;2023-03-04T14:21:34;3.50;99.90
34460;DHT22;20704;51.260;22.558;2023-03-04T14:23:38;3.50;99.90
34460;DHT22;20704;51.260;22.558;2023-03-04T14:25:42;3.50;99.90
34460;DHT22;20704;51.260;22.558;2023-03-04T14:27:45;3.50;99.90
34460;DHT22;20704;51.260;22.558;2023-03-04T14:29:58;3.50;99.90
34460;DHT22;20704;51.260;22.558;2023-03-04T14:32:00;3.50;99.90
34460;DHT22;20704;51.260;22.558;2023-03-04T14:34:06;3.60;99.90
34460;DHT22;20704;51.260;22.558;2023-03-04T14:36:21;3.60;99.90
34460;DHT22;20704;51.260;22.558;2023-03-04T14:40:43;3.50;99.90
34460;DHT22;20704;51.260;22.558;2023-03-04T14:42:47;3.50;99.90
34460;DHT22;20704;51.260;22.558;2023-03-04T14:44:55;3.50;99.90
34460;DHT22;20704;51.260;22.558;2023-03-04T14:47:05;3.50;99.90
34460;DHT22;20704;51.260;22.558;2023-03-04T14:49:11;3.50;99.90
34460;DHT22;20704;51.260;22.558;2023-03-04T14:51:49;3.50;99.90
34460;DHT22;20704;51.260;22.558;2023-03-04T14:53:55;3.60;99.90